Tiempo atmosférico en la estación meteorológica de Zaorejas, Guadalajara (1230 m.)



Fecha
DESCASC
Temp. máxima en grados centígrados (hora)
DESCASC
Temp. mínima en grados centígrados (hora)
DESCASC
Temp. media en grados centígrados
DESCASC
Racha de viento máxima en m/sg (hora)
DESCASC
Velocidad máxima media en intervalos de 10 minutos(hora)
DESCASC
Precipitaciones diarias en mm
DESCASC
Precipitaciones de 00:00 a 06:00 en mm
DESCASC
Precipitaciones de 06:00 a 12:00 en mm
DESCASC
Precipitaciones de 12:00 a 18:00 en mm
DESCASC
Precipitaciones de 18:00 a 24:00 en mm
DESCASC
18-04-2019 13.4 (00:00) 4.8 (23:50) 9.1 10.28 (08:10) 5 (01:10) 36.4 0 12.2 12 12.2
17-04-2019 21.8 (18:10) 8 (07:40) 14.9 12.5 (13:30) 7.22 (13:30) 0 0 0 0 0
16-04-2019 19.6 (17:30) 5.2 (00:00) 12.4 6.94 (18:20) 4.17 (18:20) 0 0 0 0 0
15-04-2019 19.9 (15:40) 8.9 (00:00) 14.4 15.56 (16:40) 8.33 (16:40) 0 0 0 0 0
14-04-2019 19.9 (15:50) 4.9 (00:00) 12.4 7.78 (15:40) 3.61 (13:20) 0 0 0 0 0
13-04-2019 17.8 (17:10) -0.7 (-00:0) 8.5 6.39 (17:10) 3.33 (17:20) 0 0 0 0 0
12-04-2019 13 (18:10) 0.3 (00:00) 6.7 9.44 (16:30) 5 (10:40) 0 0 0 0 0
11-04-2019 10.6 (16:30) 1 (00:00) 5.8 9.72 (16:20) 5.56 (17:40) 0 0 0 0 0
10-04-2019 9.7 (15:40) 1.9 (00:00) 5.8 11.67 (17:00) 6.67 (17:00) 1.6 0.2 1 0 0.4
09-04-2019 7 (15:50) 1.2 (00:00) 4.1 10.28 (16:20) 5.83 (14:20) 7.2 2.6 0.2 3.6 0.8
08-04-2019 -- (--) -- (--) -- -- (--) -- (--) -- 0.8 1.4 -- 0
07-04-2019 8.1 (16:00) 0.1 (00:00) 4.1 10.28 (21:00) 5.83 (21:00) 8.2 1 3.6 3.4 0.2
06-04-2019 4.4 (15:40) -0.3 (00:00) 2.1 13.89 (17:10) 6.39 (16:00) 7.6 0 2.8 4.6 0.2
05-04-2019 4.3 (03:40) 0 (00:00) 2.2 11.39 (19:40) 5.83 (07:00) 4.4 0.2 1.2 2.8 0.2
04-04-2019 10.2 (16:10) -3.1 (-00:0) 3.5 10 (18:30) 5 (18:30) 0 0 0 0 0
03-04-2019 9.7 (12:50) 1 (00:00) 5.3 10 (13:40) 5.56 (05:50) 0 0 0 0 0
02-04-2019 12.9 (13:20) 3.5 (00:00) 8.2 8.61 (17:30) 4.17 (01:40) 5.6 3.8 0.2 1 0.6
01-04-2019 10.9 (14:40) 4.2 (00:00) 7.5 8.06 (15:20) 4.72 (15:30) 3.6 1.2 2 0.4 0
31-03-2019 8.4 (14:20) 3.3 (00:00) 5.8 7.22 (15:20) 3.33 (16:30) 5.2 0 0.4 3.6 1.2
30-03-2019 -- (--) -- (--) -- -- (--) -- (--) -- 0 -- 0 0
29-03-2019 16.3 (16:20) -0.3 (00:00) 8 8.61 (22:20) 4.72 (22:10) 0 0 0 0 0
28-03-2019 17.1 (16:30) -1.6 (-00:0) 7.8 6.11 (16:30) 3.06 (17:40) 0 0 0 0 0
27-03-2019 15.7 (15:50) -2.9 (-00:0) 6.4 7.78 (16:10) 3.33 (13:40) 0 0 0 0 0
26-03-2019 15.2 (15:30) -3.2 (-00:0) 6 10.56 (15:40) 4.44 (16:20) 0 0 0 0 0
25-03-2019 16.3 (15:00) 0.3 (00:00) 8.3 8.61 (13:40) 4.72 (18:00) 0 0 0 0 0
24-03-2019 18.2 (16:00) -0.3 (00:00) 9 12.22 (15:20) 3.89 (15:00) 0 0 0 0 0
23-03-2019 16.3 (15:00) -0.4 (00:00) 7.9 11.39 (15:00) 4.72 (12:20) 0 0 0 0 0
22-03-2019 14.7 (15:40) -2.7 (-00:0) 6 8.61 (14:10) 3.89 (13:10) 0 0 0 0 0
21-03-2019 12.1 (16:00) -3.3 (-00:0) 4.4 7.78 (13:50) 3.61 (15:20) 0 0 0 0 0

Gráficas

Temp. máximas Temp. mínimas Temp. medias Precipitaciones Rachas de viento máximas Velocidades máximas media en intervalos de 10 minutos

Datos horarios

Fecha y hora oficial Temperatura (ºC) Velocidad del viento (km/h) Dirección del viento Racha (km/h) Dirección de racha Precipitación (mm) Presión (hPa) Tendencia (hPa) Humedad (%)
2019-04-19 23:00:00 6.9 17 Nordeste 44 Este 0 -- -- 80
2019-04-19 22:00:00 7.6 25 Este 49 Nordeste 0 -- -- 78
2019-04-19 21:00:00 8.2 23 Nordeste 48 Este 0 -- -- 77
2019-04-19 20:00:00 9 26 Este 71 Nordeste 0 -- -- 76
2019-04-19 19:00:00 9.8 37 Este 68 Nordeste 0 -- -- 74
2019-04-19 18:00:00 10 32 Este 67 Nordeste 0 -- -- 82
2019-04-19 17:00:00 7.4 26 Este 60 Nordeste 0 -- -- 93
2019-04-19 16:00:00 6.9 28 Este 59 Este 0.4 -- -- 98
2019-04-19 15:00:00 6.8 12 Nordeste 36 Este 2 -- -- 98
2019-04-19 14:00:00 6.6 2 Norte 6 Nordeste 2 -- -- 98
2019-04-19 13:00:00 6.7 3 Nordeste 9 Nordeste 0.4 -- -- 98
2019-04-19 12:00:00 6.5 3 Nordeste 8 Nordeste 0.8 -- -- 99
2019-04-19 11:00:00 5.8 2 Nordeste 7 Nordeste 1.6 -- -- 99
2019-04-19 10:00:00 5.3 3 Nordeste 6 Nordeste 2.6 -- -- 99
2019-04-19 09:00:00 5 3 Nordeste 10 Nordeste 2 -- -- 99
2019-04-19 08:00:00 4.8 3 Nordeste 11 Nordeste 0.6 -- -- 99
2019-04-19 07:00:00 4.6 4 Nordeste 10 Nordeste 0.4 -- -- 99
2019-04-19 06:00:00 4.6 4 Nordeste 12 Este 0 -- -- 98
2019-04-19 05:00:00 4.5 3 Nordeste 9 Nordeste 0.2 -- -- 99
2019-04-19 04:00:00 4.4 3 Nordeste 9 Este 0.2 -- -- 99
2019-04-19 03:00:00 4.4 5 Nordeste 14 Nordeste 1.4 -- -- 99
2019-04-19 02:00:00 4.3 6 Nordeste 13 Este 1.2 -- -- 98
2019-04-19 01:00:00 4.6 5 Nordeste 14 Nordeste 1 -- -- 96
2019-04-19 00:00:00 4.8 6 Este 14 Este 1.4 -- -- 95
2019-04-18 23:00:00 5.1 7 Este 17 Este 1.4 -- -- 95
2019-04-18 22:00:00 5.4 6 Este 14 Nordeste 1.6 -- -- 97
2019-04-18 21:00:00 5.7 3 Nordeste 9 Nordeste 2.4 -- -- 96
2019-04-18 20:00:00 5.9 4 Este 9 Nordeste 4 -- -- 96
2019-04-18 19:00:00 6.1 3 Nordeste 10 Nordeste 1.4 -- -- 96
2019-04-18 18:00:00 6.3 4 Sudoeste 13 Sudoeste 2 -- -- 92
2019-04-18 17:00:00 6.6 7 Oeste 20 Oeste 2.6 -- -- 93
2019-04-18 16:00:00 7.4 6 Oeste 17 Oeste 3.2 -- -- 91
2019-04-18 15:00:00 7.9 6 Sur 16 Sudeste 2.6 -- -- 90
2019-04-18 14:00:00 8.9 3 Sudeste 9 Sudoeste 1.6 -- -- 87
2019-04-18 13:00:00 9.3 0 Calma 7 Nordeste 0 -- -- 87
2019-04-18 12:00:00 9.1 4 Nordeste 8 Nordeste 0 -- -- 93
2019-04-18 11:00:00 8.4 4 Nordeste 11 Nordeste 0 -- -- 95
2019-04-18 10:00:00 7.1 5 Nordeste 17 Nordeste 1.8 -- -- 95
2019-04-18 09:00:00 7.2 8 Sudeste 37 Sur 4.6 -- -- 91
2019-04-18 08:00:00 8.3 7 Sur 26 Sur 4.6 -- -- 89
2019-04-18 07:00:00 8.8 10 Oeste 28 Sudoeste 1.2 -- -- 85
2019-04-18 06:00:00 9.9 0 Calma 5 Sur 0 -- -- 69
2019-04-18 05:00:00 10 0 Calma 11 Sur 0 -- -- 69
2019-04-18 04:00:00 10.1 5 Sur 25 Sur 0 -- -- 69
2019-04-18 03:00:00 10.6 16 Sudoeste 34 Sudoeste 0 -- -- 67
2019-04-18 02:00:00 11.7 16 Sudoeste 31 Sudoeste 0 -- -- 63
2019-04-18 01:00:00 12.2 13 Sudoeste 28 Sudoeste 0 -- -- 60
2019-04-18 00:00:00 13.4 9 Sudoeste 21 Sudoeste 0 -- -- 55
2019-04-17 23:00:00 14.3 10 Sur 32 Sur 0 -- -- 52
2019-04-17 22:00:00 15.6 16 Sudoeste 31 Sur 0 -- -- 45
2019-04-17 21:00:00 16.6 12 Sur 24 Sur 0 -- -- 41
2019-04-17 20:00:00 18.6 11 Sur 26 Sudeste 0 -- -- 36
2019-04-17 19:00:00 20.4 12 Sudeste 27 Sudoeste 0 -- -- 33
2019-04-17 18:00:00 21.7 14 Sur 30 Sudeste 0 -- -- 27
2019-04-17 17:00:00 21.4 14 Sudoeste 29 Sudoeste 0 -- -- 28
2019-04-17 16:00:00 21 17 Sur 39 Sudoeste 0 -- -- 30
2019-04-17 15:00:00 20.7 17 Sudoeste 38 Sudoeste 0 -- -- 32
2019-04-17 14:00:00 19.3 24 Sudoeste 45 Sudoeste 0 -- -- 38
2019-04-17 13:00:00 18.1 24 Sur 45 Sur 0 -- -- 37
2019-04-17 12:00:00 16.6 14 Sur 30 Sur 0 -- -- 43
2019-04-17 11:00:00 13.9 8 Sur 23 Sur 0 -- -- 51
2019-04-17 10:00:00 10.7 9 Sur 19 Sur 0 -- -- 66
2019-04-17 09:00:00 8.9 5 Sur 17 Sur 0 -- -- 72
2019-04-17 08:00:00 8 5 Sur 18 Sur 0 -- -- 77
2019-04-17 07:00:00 8.2 8 Sur 23 Sur 0 -- -- 77
2019-04-17 06:00:00 8.3 14 Sur 26 Sur 0 -- -- 77
2019-04-17 05:00:00 8.3 12 Sur 22 Sur 0 -- -- 78
2019-04-17 04:00:00 8.5 9 Sur 24 Sur 0 -- -- 77
2019-04-17 03:00:00 8.5 6 Sur 15 Sur 0 -- -- 77
2019-04-17 02:00:00 9 10 Sur 23 Sur 0 -- -- 76
2019-04-17 01:00:00 9.2 15 Sur 25 Sur 0 -- -- 74
2019-04-17 00:00:00 9.2 12 Sur 18 Sur 0 -- -- 62
2019-04-16 23:00:00 9.5 10 Sudoeste 13 Sur 0 -- -- 56
2019-04-16 22:00:00 12 4 Sur 6 Sur 0 -- -- 48
2019-04-16 21:00:00 14.7 3 Sudoeste 13 Sudoeste 0 -- -- 39
2019-04-16 20:00:00 17.1 7 Sudoeste 24 Sur 0 -- -- 33
2019-04-16 19:00:00 17.4 13 Sudoeste 25 Sudoeste 0 -- -- 34
2019-04-16 18:00:00 18.9 10 Sudoeste 22 Sudoeste 0 -- -- 34
2019-04-16 17:00:00 19.3 7 Sur 21 Sur 0 -- -- 33
2019-04-16 16:00:00 18.7 9 Sudoeste 21 Sudoeste 0 -- -- 35
2019-04-16 15:00:00 17.4 4 Sur 17 Sur 0 -- -- 41
2019-04-16 14:00:00 15.5 4 Este 17 Nordeste 0 -- -- 41
2019-04-16 13:00:00 13.6 4 Nordeste 12 Nordeste 0 -- -- 50
2019-04-16 12:00:00 12.3 6 Nordeste 16 Nordeste 0 -- -- 56
2019-04-16 11:00:00 10.5 8 Nordeste 15 Nordeste 0 -- -- 65
2019-04-16 10:00:00 8.2 5 Nordeste 12 Nordeste 0 -- -- 76
2019-04-16 09:00:00 6.2 4 Norte 12 Nordeste 0 -- -- 86
2019-04-16 08:00:00 5.4 4 Noroeste 7 Noroeste 0 -- -- 88
2019-04-16 07:00:00 5.3 2 Noroeste 12 Noroeste 0 -- -- 85
2019-04-16 06:00:00 5.8 5 Noroeste 14 Oeste 0 -- -- 84
2019-04-16 05:00:00 6.3 6 Norte 15 Nordeste 0 -- -- 80
2019-04-16 04:00:00 6.4 5 Norte 12 Norte 0 -- -- 75
2019-04-16 03:00:00 7.4 2 Noroeste 12 Noroeste 0 -- -- 69
2019-04-16 02:00:00 8.3 5 Noroeste 10 Noroeste 0 -- -- 67
2019-04-16 01:00:00 8.6 6 Norte 12 Norte 0 -- -- 71
2019-04-16 00:00:00 9.2 6 Norte 18 Noroeste 0 -- -- 72
2019-04-15 23:00:00 10.6 7 Noroeste 26 Noroeste 0 -- -- 70
2019-04-15 22:00:00 13.8 13 Oeste 39 Sudoeste 0 -- -- 49
2019-04-15 21:00:00 15.7 18 Sudoeste 45 Oeste 0 -- -- 36
2019-04-15 20:00:00 17.3 21 Sudoeste 46 Sudoeste 0 -- -- 39
2019-04-15 19:00:00 18.7 26 Sudoeste 53 Sudoeste 0 -- -- 38
2019-04-15 18:00:00 19.9 24 Sudoeste 56 Oeste 0 -- -- 41
2019-04-15 17:00:00 19.8 28 Sudoeste 56 Sudoeste 0 -- -- 41
2019-04-15 16:00:00 19.5 24 Sudoeste 47 Sudoeste 0 -- -- 47
2019-04-15 15:00:00 18.4 21 Sudoeste 39 Sudoeste 0 -- -- 52
2019-04-15 14:00:00 17.1 19 Sudoeste 49 Sudoeste 0 -- -- 58
2019-04-15 13:00:00 17.2 25 Sudoeste 45 Sudoeste 0 -- -- 55
2019-04-15 12:00:00 15.5 16 Sudoeste 38 Sur 0 -- -- 62
2019-04-15 11:00:00 13.3 15 Sudoeste 30 Sudoeste 0 -- -- 70
2019-04-15 10:00:00 12.6 12 Sudoeste 27 Sudoeste 0 -- -- 74
2019-04-15 09:00:00 10.6 6 Sudoeste 12 Sudoeste 0 -- -- 80
2019-04-15 08:00:00 9.5 5 Sur 12 Sur 0 -- -- 81
2019-04-15 07:00:00 9.6 6 Sur 14 Sudeste 0 -- -- 79
2019-04-15 06:00:00 9 10 Sur 15 Sur 0 -- -- 78
2019-04-15 05:00:00 9.3 0 Calma 15 Sur 0 -- -- 76
2019-04-15 04:00:00 9.8 6 Sur 17 Sur 0 -- -- 76
2019-04-15 03:00:00 9.7 2 Nordeste 4 Nordeste 0 -- -- 77
2019-04-15 02:00:00 10.7 3 Este 7 Este 0 -- -- 73
2019-04-15 01:00:00 11.6 3 Este 7 Este 0 -- -- 70
2019-04-15 00:00:00 12.7 6 Sudeste 9 Este 0 -- -- 67
2019-04-14 23:00:00 13.1 2 Nordeste 8 Sur 0 -- -- 62
2019-04-14 22:00:00 14.2 6 Sur 10 Sur 0 -- -- 59
2019-04-14 21:00:00 16 4 Oeste 12 Oeste 0 -- -- 52
2019-04-14 20:00:00 17.4 7 Oeste 15 Oeste 0 -- -- 50
2019-04-14 19:00:00 18.3 10 Oeste 21 Oeste 0 -- -- 46
2019-04-14 18:00:00 18.7 9 Oeste 23 Oeste 0 -- -- 46
2019-04-14 17:00:00 18.8 10 Oeste 28 Oeste 0 -- -- 46
2019-04-14 16:00:00 19.6 11 Oeste 28 Sudoeste 0 -- -- 45
2019-04-14 15:00:00 18 10 Oeste 26 Sudoeste 0 -- -- 50
2019-04-14 14:00:00 17.7 10 Sudoeste 25 Oeste 0 -- -- 49
2019-04-14 13:00:00 16 8 Noroeste 21 Oeste 0 -- -- 56
2019-04-14 12:00:00 15.3 8 Oeste 21 Oeste 0 -- -- 57
2019-04-14 11:00:00 13.3 6 Oeste 13 Sudoeste 0 -- -- 55
2019-04-14 10:00:00 10.9 7 Oeste 14 Oeste 0 -- -- 49
2019-04-14 09:00:00 7.8 3 Sudoeste 11 Sudoeste 0 -- -- 47
2019-04-14 08:00:00 6.3 5 Sudoeste 11 Sudoeste 0 -- -- 44
2019-04-14 07:00:00 6.1 6 Sudoeste 12 Sur 0 -- -- 43
2019-04-14 06:00:00 6 5 Sudoeste 12 Sudoeste 0 -- -- 42
2019-04-14 05:00:00 5.7 7 Sudoeste 13 Sur 0 -- -- 43
2019-04-14 04:00:00 5 6 Sur 12 Sur 0 -- -- 44
2019-04-14 03:00:00 7 6 Sudoeste 10 Sudoeste 0 -- -- 36
2019-04-14 02:00:00 6.5 5 Sur 12 Sur 0 -- -- 39
2019-04-14 01:00:00 6.8 8 Sur 13 Sur 0 -- -- 36
2019-04-14 00:00:00 7.8 3 Sur 7 Sudoeste 0 -- -- 36
2019-04-13 23:00:00 9.6 5 Sudoeste 10 Oeste 0 -- -- 31
2019-04-13 22:00:00 11.1 6 Sudoeste 9 Sudoeste 0 -- -- 28
2019-04-13 21:00:00 13 3 Oeste 11 Oeste 0 -- -- 21
2019-04-13 20:00:00 15.7 6 Oeste 20 Oeste 0 -- -- 16
2019-04-13 19:00:00 16.7 7 Oeste 20 Oeste 0 -- -- 16
2019-04-13 18:00:00 17.3 11 Noroeste 23 Oeste 0 -- -- 16
2019-04-13 17:00:00 17.6 9 Oeste 20 Oeste 0 -- -- 15
2019-04-13 16:00:00 17.4 6 Nordeste 20 Norte 0 -- -- 16
2019-04-13 15:00:00 16.1 8 Norte 19 Noroeste 0 -- -- 19
2019-04-13 14:00:00 15 8 Oeste 21 Norte 0 -- -- 19
2019-04-13 13:00:00 12.9 8 Norte 20 Noroeste 0 -- -- 27
2019-04-13 12:00:00 10.8 8 Norte 17 Norte 0 -- -- 30
2019-04-13 11:00:00 8.8 6 Norte 13 Norte 0 -- -- 36
2019-04-13 10:00:00 5.4 2 Oeste 8 Sudoeste 0 -- -- 53
2019-04-13 09:00:00 0.4 2 Sudoeste 4 Sudeste 0 -- -- 67
2019-04-13 08:00:00 -0.5 0 Calma 4 Nordeste 0 -- -- 72
2019-04-13 07:00:00 -0.5 3 Sur 4 Sudoeste 0 -- -- 68
2019-04-13 06:00:00 0.5 0 Calma 11 Oeste 0 -- -- 66
2019-04-13 05:00:00 1.7 4 Oeste 11 Sudoeste 0 -- -- 65
2019-04-13 04:00:00 0.5 5 Sudoeste 10 Sudoeste 0 -- -- 70
2019-04-13 03:00:00 1.2 2 Sudoeste 5 Sur 0 -- -- 69
2019-04-13 02:00:00 2.2 0 Calma 4 Sur 0 -- -- 68
2019-04-13 01:00:00 3.3 0 Calma 4 Sudoeste 0 -- -- 66
2019-04-13 00:00:00 5 0 Calma 4 Sur 0 -- -- 60
2019-04-12 23:00:00 6.6 0 Calma 6 Nordeste 0 -- -- 54
2019-04-12 22:00:00 8.1 3 Este 10 Norte 0 -- -- 48
2019-04-12 21:00:00 9.8 5 Nordeste 13 Norte 0 -- -- 42
2019-04-12 20:00:00 11.8 6 Norte 25 Noroeste 0 -- -- 37
2019-04-12 19:00:00 12.4 10 Nordeste 22 Norte 0 -- -- 36
2019-04-12 18:00:00 12.9 13 Norte 26 Nordeste 0 -- -- 33
2019-04-12 17:00:00 12.6 12 Norte 34 Noroeste 0 -- -- 39
2019-04-12 16:00:00 11.8 11 Norte 26 Norte 0 -- -- 45
2019-04-12 15:00:00 11.1 10 Nordeste 21 Norte 0 -- -- 49
2019-04-12 14:00:00 9.2 6 Nordeste 24 Norte 0 -- -- 59
2019-04-12 13:00:00 8.1 11 Norte 28 Noroeste 0 -- -- 60
2019-04-12 12:00:00 7.3 10 Norte 27 Nordeste 0 -- -- 61
2019-04-12 11:00:00 4.7 15 Nordeste 33 Nordeste 0 -- -- 72
2019-04-12 10:00:00 3.6 7 Nordeste 18 Norte 0 -- -- 81
2019-04-12 09:00:00 1.1 4 Nordeste 11 Nordeste 0 -- -- 90
2019-04-12 08:00:00 0.4 3 Nordeste 13 Noroeste 0 -- -- 90
2019-04-12 07:00:00 0.5 3 Nordeste 17 Norte 0 -- -- 87
2019-04-12 06:00:00 1.2 8 Norte 22 Norte 0 -- -- 85
2019-04-12 05:00:00 1.3 9 Norte 23 Nordeste 0 -- -- 83
2019-04-12 04:00:00 1.6 8 Nordeste 31 Norte 0 -- -- 81
2019-04-12 03:00:00 1.9 8 Norte 18 Nordeste 0 -- -- 80
2019-04-12 02:00:00 2.4 10 Nordeste 25 Norte 0 -- -- 81
2019-04-12 01:00:00 2.9 9 Nordeste 22 Nordeste 0 -- -- 82
2019-04-12 00:00:00 3.5 7 Nordeste 26 Nordeste 0 -- -- 80
2019-04-11 23:00:00 4.7 13 Nordeste 33 Norte 0 -- -- 76
2019-04-11 22:00:00 5.6 12 Nordeste 32 Nordeste 0 -- -- 70
2019-04-11 21:00:00 7 15 Nordeste 33 Norte 0 -- -- 64
2019-04-11 20:00:00 7.8 10 Norte 23 Norte 0 -- -- 61
2019-04-11 19:00:00 8.6 10 Norte 31 Norte 0 -- -- 57
2019-04-11 18:00:00 9.2 12 Norte 31 Nordeste 0 -- -- 55
2019-04-11 17:00:00 9.8 14 Norte 35 Noroeste 0 -- -- 52
2019-04-11 16:00:00 9.6 15 Noroeste 33 Norte 0 -- -- 50
2019-04-11 15:00:00 8.6 14 Norte 28 Norte 0 -- -- 55
2019-04-11 14:00:00 8.3 13 Norte 27 Norte 0 -- -- 57
2019-04-11 13:00:00 7.9 12 Norte 31 Norte 0 -- -- 58
2019-04-11 12:00:00 6.2 14 Norte 24 Norte 0 -- -- 67
2019-04-11 11:00:00 4.7 13 Nordeste 32 Nordeste 0 -- -- 77
2019-04-11 10:00:00 2.9 12 Nordeste 25 Nordeste 0 -- -- 84
2019-04-11 09:00:00 2 10 Nordeste 21 Nordeste 0 -- -- 87
2019-04-11 08:00:00 1.5 4 Nordeste 12 Norte 0 -- -- 89
2019-04-11 07:00:00 1.4 4 Nordeste 9 Nordeste 0 -- -- 91
2019-04-11 06:00:00 1.3 0 Calma 10 Norte 0 -- -- 90
2019-04-11 05:00:00 1.1 5 Nordeste 18 Nordeste 0 -- -- 90
2019-04-11 04:00:00 1.4 3 Nordeste 15 Norte 0 -- -- 89
2019-04-11 03:00:00 1.8 8 Norte 21 Nordeste 0 -- -- 89
2019-04-11 02:00:00 2.2 10 Nordeste 26 Nordeste 0 -- -- 87
2019-04-11 01:00:00 2.5 8 Norte 26 Norte 0 -- -- 85
2019-04-11 00:00:00 2.9 7 Norte 22 Norte 0 -- -- 85
2019-04-10 23:00:00 3.8 9 Norte 30 Norte 0 -- -- 84
2019-04-10 22:00:00 4.4 8 Norte 21 Norte 0 -- -- 81
2019-04-10 21:00:00 4.8 4 Noroeste 13 Noroeste 0 -- -- 81
2019-04-10 20:00:00 5.4 6 Noroeste 32 Nordeste 0.4 -- -- 81
2019-04-10 19:00:00 7.6 13 Noroeste 24 Noroeste 0 -- -- 65
2019-04-10 18:00:00 6.6 8 Norte 32 Nordeste 0 -- -- 70
2019-04-10 17:00:00 7.8 24 Nordeste 42 Nordeste 0 -- -- 64
2019-04-10 16:00:00 8.5 14 Noroeste 27 Noroeste 0 -- -- 59
2019-04-10 15:00:00 8.2 13 Oeste 28 Oeste 0 -- -- 69
2019-04-10 14:00:00 7 12 Oeste 30 Noroeste 0 -- -- 74
2019-04-10 13:00:00 6 11 Noroeste 29 Noroeste 0 -- -- 81
2019-04-10 12:00:00 5.2 10 Oeste 26 Noroeste 1 -- -- 85
2019-04-10 11:00:00 4.1 8 Oeste 28 Norte 0 -- -- 90
2019-04-10 10:00:00 3.4 5 Oeste 22 Oeste 0 -- -- 93
2019-04-10 09:00:00 2.3 8 Noroeste 17 Oeste 0 -- -- 96
2019-04-10 08:00:00 2 6 Oeste 16 Oeste 0 -- -- 96
2019-04-10 07:00:00 2 6 Oeste 15 Sudoeste 0 -- -- 96
2019-04-10 06:00:00 2 6 Oeste 16 Sudoeste 0 -- -- 96
2019-04-10 05:00:00 2 6 Oeste 12 Oeste 0 -- -- 95
2019-04-10 04:00:00 2.1 5 Oeste 15 Sudoeste 0 -- -- 94
2019-04-10 03:00:00 2.3 8 Sudoeste 19 Oeste 0 -- -- 92
2019-04-10 02:00:00 2.1 8 Sudoeste 15 Sudoeste 0 -- -- 91
2019-04-10 01:00:00 1.9 4 Oeste 23 Oeste 0.2 -- -- 91
2019-04-10 00:00:00 2.4 7 Sudoeste 19 Oeste 0 -- -- 90
2019-04-09 23:00:00 3.1 14 Sudoeste 28 Sudoeste 0 -- -- 89
2019-04-09 22:00:00 3.5 13 Sudoeste 25 Oeste 0 -- -- 84
2019-04-09 21:00:00 3.4 11 Sudoeste 23 Oeste 0 -- -- 88
2019-04-09 20:00:00 3.6 9 Sudoeste 30 Noroeste 0 -- -- 94
2019-04-09 19:00:00 3.2 13 Oeste 33 Oeste 0.8 -- -- 94
2019-04-09 18:00:00 3.9 9 Oeste 37 Oeste 1.4 -- -- 95
2019-04-09 17:00:00 5.3 13 Oeste 37 Sudoeste 1.2 -- -- 87
2019-04-09 16:00:00 6.8 13 Oeste 32 Sudoeste 0 -- -- 81
2019-04-09 15:00:00 5 15 Sudoeste 36 Sudoeste 1 -- -- 94
2019-04-09 14:00:00 5.7 8 Sudoeste 26 Sudoeste 0 -- -- 86
2019-04-09 13:00:00 5.4 13 Sudoeste 32 Sudoeste 0 -- -- 81
2019-04-09 12:00:00 4.7 15 Sudoeste 32 Oeste 0 -- -- 82
2019-04-09 11:00:00 3.8 9 Oeste 31 Sudoeste 0 -- -- 91
2019-04-09 10:00:00 3.5 13 Sudoeste 29 Sudoeste 0 -- -- 92
2019-04-09 09:00:00 2.6 12 Sudoeste 22 Sudoeste 0 -- -- 98
2019-04-09 08:00:00 2.3 8 Sudoeste 23 Sudoeste 0 -- -- 97
2019-04-09 07:00:00 2.1 12 Sudoeste 23 Sudoeste 0.2 -- -- 97
2019-04-09 06:00:00 1.8 6 Sudoeste 22 Sudoeste 0 -- -- 95
2019-04-09 05:00:00 1.8 8 Sudoeste 17 Sudoeste 0 -- -- 94
2019-04-09 04:00:00 1.4 3 Sudoeste 12 Sur 0.2 -- -- 95
2019-04-09 03:00:00 1.6 3 Sur 18 Sudoeste 0.8 -- -- 93
2019-04-09 02:00:00 2.7 10 Oeste 22 Oeste 1.2 -- -- 94
2019-04-09 01:00:00 3.1 0 Calma 11 Noroeste 0.4 -- -- 90
2019-04-09 00:00:00 3.7 5 Nordeste 11 Nordeste 0 -- -- 90
2019-04-08 23:00:00 4 3 Noroeste 19 Noroeste 0 -- -- 88
2019-04-08 22:00:00 6.1 11 Noroeste 27 Oeste 0 -- -- 78
2019-04-08 21:00:00 7.5 9 Sudoeste 18 Sur 0 -- -- 75
2019-04-08 20:00:00 8.7 5 Noroeste 18 Oeste 0 -- -- 74
2019-04-08 19:00:00 9.8 15 Sudoeste 33 Sudoeste 0 -- -- 63
2019-04-08 18:00:00 10 14 Oeste 29 Sudoeste 0 -- -- 69
2019-04-08 17:00:00 9.6 10 Oeste 29 Oeste 0.6 -- -- 90
2019-04-08 16:00:00 -- -- -- -- -- -- -- -- --
2019-04-08 15:00:00 8.6 10 Oeste 29 Sudoeste 0.8 -- -- 92
2019-04-08 14:00:00 8.3 14 Oeste 36 Sudoeste 0.2 -- -- 90
2019-04-08 13:00:00 7 10 Sudoeste 28 Sudoeste 0.4 -- -- 96
2019-04-08 12:00:00 6.4 15 Sudoeste 44 Sudoeste 0 -- -- 95
2019-04-08 11:00:00 5.8 17 Sudoeste 36 Sudoeste 0.4 -- -- 97
2019-04-08 10:00:00 5.6 10 Sudoeste 25 Oeste 0.6 -- -- 98
2019-04-08 09:00:00 5.1 11 Sudoeste 30 Oeste 0.4 -- -- 98
2019-04-08 08:00:00 4.8 14 Sudoeste 35 Sudoeste 0 -- -- 98
2019-04-08 07:00:00 4.3 13 Sudoeste 31 Sudoeste 0 -- -- 98
2019-04-08 06:00:00 4.1 17 Sudoeste 29 Sudoeste 0.2 -- -- 98
2019-04-08 05:00:00 3.8 14 Sudoeste 25 Sudoeste 0 -- -- 97
2019-04-08 04:00:00 3.4 11 Sudoeste 29 Sur 0 -- -- 97
2019-04-08 03:00:00 3.4 11 Sudoeste 24 Sur 0 -- -- 96
2019-04-08 02:00:00 3.3 9 Sudoeste 21 Sudoeste 0.4 -- -- 94
2019-04-08 01:00:00 3.3 10 Sudoeste 20 Sudoeste 0.2 -- -- 93
2019-04-08 00:00:00 3.4 9 Sudoeste 21 Sudoeste 0.2 -- -- 92
2019-04-07 23:00:00 3.5 11 Sudoeste 20 Sudoeste 0 -- -- 91
2019-04-07 22:00:00 3.7 12 Sudoeste 32 Oeste 0 -- -- 88
2019-04-07 21:00:00 5.1 21 Sudoeste 37 Sudoeste 0 -- -- 80
2019-04-07 20:00:00 6.5 11 Sudoeste 29 Sudoeste 0 -- -- 55
2019-04-07 19:00:00 7.3 14 Sudoeste 30 Oeste 0 -- -- 54
2019-04-07 18:00:00 7.9 12 Oeste 27 Oeste 0 -- -- 55
2019-04-07 17:00:00 7.7 13 Sudoeste 30 Oeste 0 -- -- 54
2019-04-07 16:00:00 8.1 14 Oeste 32 Oeste 0 -- -- 55
2019-04-07 15:00:00 6.3 14 Sudoeste 32 Sudoeste 0.4 -- -- 67
2019-04-07 14:00:00 4.8 11 Oeste 22 Oeste 1.4 -- -- 72
2019-04-07 13:00:00 3.4 8 Oeste 23 Sudoeste 1.6 -- -- 83
2019-04-07 12:00:00 2.5 8 Oeste 24 Sudoeste 1.4 -- -- 84
2019-04-07 11:00:00 2.5 10 Oeste 22 Oeste 1.6 -- -- 87
2019-04-07 10:00:00 0.9 8 Oeste 23 Oeste 0.4 -- -- 97
2019-04-07 09:00:00 0.2 10 Oeste 23 Oeste 0 -- -- 98
2019-04-07 08:00:00 0.1 11 Oeste 28 Oeste 0 -- -- 98
2019-04-07 07:00:00 0.1 13 Sudoeste 24 Sudoeste 0.2 -- -- 98
2019-04-07 06:00:00 0.1 9 Sudoeste 22 Oeste 0 -- -- 97
2019-04-07 05:00:00 0.1 8 Oeste 24 Oeste 0 -- -- 96
2019-04-07 04:00:00 0.2 16 Sudoeste 32 Sudoeste 0.2 -- -- 95
2019-04-07 03:00:00 0.3 14 Sudoeste 29 Sudoeste 0 -- -- 95
2019-04-07 02:00:00 0.7 13 Sudoeste 26 Sudoeste 0.4 -- -- 95
2019-04-07 01:00:00 1 13 Sudoeste 32 Sudoeste 0.4 -- -- 96
2019-04-07 00:00:00 0.8 15 Sudoeste 28 Sudoeste 0.2 -- -- 97
2019-04-06 23:00:00 0.5 6 Sudoeste 25 Sudoeste 0 -- -- 95
2019-04-06 22:00:00 1.1 12 Sudoeste 27 Sudoeste 0 -- -- 92
2019-04-06 21:00:00 0.9 12 Sudoeste 29 Sudoeste 0 -- -- 94
2019-04-06 20:00:00 1.3 15 Sudoeste 37 Sudoeste 0 -- -- 92
2019-04-06 19:00:00 1.1 4 Sudoeste 16 Noroeste 0 -- -- 95
2019-04-06 18:00:00 1.1 4 Sudoeste 50 Oeste 0 -- -- 96
2019-04-06 17:00:00 3.5 18 Sudoeste 35 Sudoeste 0 -- -- 86
2019-04-06 16:00:00 3.9 23 Sudoeste 43 Sudoeste 0 -- -- 84
2019-04-06 15:00:00 3.4 20 Sudoeste 36 Sudoeste 1.4 -- -- 90
2019-04-06 14:00:00 1.5 15 Sudoeste 35 Sudoeste 2 -- -- 96
2019-04-06 13:00:00 1.5 17 Sudoeste 38 Sudoeste 1.2 -- -- 94
2019-04-06 12:00:00 0.6 19 Sudoeste 33 Sudoeste 1.8 -- -- 95
2019-04-06 11:00:00 0.6 0 Calma 0 Calma 1 -- -- 93
2019-04-06 10:00:00 0 0 Calma -- -- 0 -- -- 95
2019-04-06 09:00:00 -0.2 0 Calma -- -- 0 -- -- 96
2019-04-06 08:00:00 -0.1 0 Calma -- -- 0 -- -- 96
2019-04-06 07:00:00 -0.1 0 Calma -- -- 0 -- -- 97
2019-04-06 06:00:00 0 0 Calma -- -- 0 -- -- 97
2019-04-06 05:00:00 0 0 Calma -- -- 0 -- -- 98
2019-04-06 04:00:00 0.1 0 Calma -- -- 0 -- -- 98
2019-04-06 03:00:00 0.2 0 Calma -- -- 0 -- -- 97
2019-04-06 02:00:00 0.2 0 Calma -- -- 0 -- -- 97
2019-04-06 01:00:00 -0.3 0 Calma -- -- 0 -- -- 96
2019-04-06 00:00:00 0 0 Calma -- -- 0 -- -- 98
2019-04-05 23:00:00 0.1 0 Calma -- -- 0 -- -- 98
2019-04-05 22:00:00 0.1 0 Calma -- -- 0 -- -- 97
2019-04-05 21:00:00 0.2 0 Calma -- -- 0 -- -- 96
2019-04-05 20:00:00 0.5 14 Oeste 41 Oeste 0.2 -- -- 94
2019-04-05 19:00:00 3.5 18 Sudoeste 31 Sudoeste 0 -- -- 91
2019-04-05 18:00:00 3.6 13 Sudoeste 30 Sur 0 -- -- 91
2019-04-05 17:00:00 3.7 15 Sudoeste 29 Sudoeste 0 -- -- 90
2019-04-05 16:00:00 3.7 8 Sudoeste 22 Sudoeste 0.2 -- -- 95
2019-04-05 15:00:00 2.4 7 Sudoeste 21 Sudoeste 0.8 -- -- 95
2019-04-05 14:00:00 2.5 13 Sudoeste 30 Sudoeste 1.4 -- -- 92
2019-04-05 13:00:00 3.4 12 Sudoeste 23 Sudoeste 0.4 -- -- 92
2019-04-05 12:00:00 3.1 11 Sudoeste 36 Sudoeste 0.2 -- -- 92
2019-04-05 11:00:00 3.6 17 Sudoeste 33 Sudoeste 0.2 -- -- 92
2019-04-05 10:00:00 2.8 16 Sudoeste 37 Sudoeste 0.2 -- -- 92
2019-04-05 09:00:00 1.7 15 Sudoeste 32 Sudoeste 0.2 -- -- 94
2019-04-05 08:00:00 1.5 18 Sudoeste 35 Sudoeste 0.2 -- -- 92
2019-04-05 07:00:00 1.6 21 Sudoeste 37 Sudoeste 0.2 -- -- 91
2019-04-05 06:00:00 1.8 17 Sudoeste 32 Sudoeste 0.2 -- -- 89
2019-04-05 05:00:00 3 18 Sudoeste 38 Sudoeste 0 -- -- 73
2019-04-05 04:00:00 3.9 12 Sudoeste 36 Sudoeste 0 -- -- 61
2019-04-05 03:00:00 4.2 16 Sudoeste 33 Sudoeste 0 -- -- 57
2019-04-05 02:00:00 3.5 13 Sudoeste 23 Sudoeste 0 -- -- 51
2019-04-05 01:00:00 1.9 10 Sur 16 Sur 0 -- -- 53
2019-04-05 00:00:00 2.4 8 Sur 16 Sur 0 -- -- 51
2019-04-04 23:00:00 2.2 12 Sur 20 Sur 0 -- -- 54
2019-04-04 22:00:00 3.2 13 Sur 21 Sur 0 -- -- 51
2019-04-04 21:00:00 5.4 6 Sudoeste 17 Sudoeste 0 -- -- 40
2019-04-04 20:00:00 6.8 10 Sudoeste 31 Sudoeste 0 -- -- 36
2019-04-04 19:00:00 7.6 13 Sudoeste 36 Sudoeste 0 -- -- 39
2019-04-04 18:00:00 8.8 12 Sudoeste 31 Sudoeste 0 -- -- 35
2019-04-04 17:00:00 9.2 13 Sudoeste 31 Sur 0 -- -- 33
2019-04-04 16:00:00 10 9 Sudoeste 29 Oeste 0 -- -- 38
2019-04-04 15:00:00 8.8 13 Sudoeste 27 Sudoeste 0 -- -- 36
2019-04-04 14:00:00 7.1 9 Oeste 23 Oeste 0 -- -- 42
2019-04-04 13:00:00 6.6 8 Sudoeste 22 Sudoeste 0 -- -- 41
2019-04-04 12:00:00 4.1 7 Oeste 18 Oeste 0 -- -- 53
2019-04-04 11:00:00 1.7 9 Noroeste 19 Noroeste 0 -- -- 58
2019-04-04 10:00:00 -0.6 9 Noroeste 18 Noroeste 0 -- -- 67
2019-04-04 09:00:00 -2.8 3 Oeste 12 Oeste 0 -- -- 76
2019-04-04 08:00:00 -3.1 8 Noroeste 17 Oeste 0 -- -- 77
2019-04-04 07:00:00 -2.7 7 Oeste 17 Oeste 0 -- -- 76
2019-04-04 06:00:00 -2.3 5 Oeste 16 Oeste 0 -- -- 76
2019-04-04 05:00:00 -1.6 5 Oeste 16 Oeste 0 -- -- 75
2019-04-04 04:00:00 -0.8 9 Noroeste 18 Norte 0 -- -- 71
2019-04-04 03:00:00 -0.3 5 Noroeste 13 Noroeste 0 -- -- 74
2019-04-04 02:00:00 0 6 Noroeste 12 Noroeste 0 -- -- 75
2019-04-04 01:00:00 0.2 4 Norte 8 Norte 0 -- -- 73
2019-04-04 00:00:00 1 0 Calma 7 Oeste 0 -- -- 70
2019-04-03 23:00:00 1.7 0 Calma 13 Norte 0 -- -- 70
2019-04-03 22:00:00 2.6 5 Norte 13 Norte 0 -- -- 66
2019-04-03 21:00:00 3.9 7 Noroeste 32 Norte 0 -- -- 57
2019-04-03 20:00:00 6.7 12 Oeste 31 Oeste 0 -- -- 45
2019-04-03 19:00:00 6.8 10 Oeste 22 Oeste 0 -- -- 50
2019-04-03 18:00:00 6.9 13 Oeste 28 Noroeste 0 -- -- 52
2019-04-03 17:00:00 6.8 12 Noroeste 24 Noroeste 0 -- -- 59
2019-04-03 16:00:00 7.4 10 Noroeste 28 Noroeste 0 -- -- 66
2019-04-03 15:00:00 9.5 17 Oeste 31 Oeste 0 -- -- 60
2019-04-03 14:00:00 8.6 13 Oeste 36 Oeste 0 -- -- 70
2019-04-03 13:00:00 9.3 15 Sudoeste 33 Sudoeste 0 -- -- 67
2019-04-03 12:00:00 8.1 16 Sudoeste 36 Sudoeste 0 -- -- 74
2019-04-03 11:00:00 7.5 13 Sudoeste 23 Sudoeste 0 -- -- 81
2019-04-03 10:00:00 6 13 Sudoeste 25 Sudoeste 0 -- -- 92
2019-04-03 09:00:00 5 8 Sudoeste 20 Sur 0 -- -- 95
2019-04-03 08:00:00 4.8 9 Sudoeste 23 Sur 0 -- -- 95
2019-04-03 07:00:00 4.7 14 Sur 27 Sudoeste 0 -- -- 95
2019-04-03 06:00:00 4.8 12 Sudoeste 30 Sudoeste 0 -- -- 94
2019-04-03 05:00:00 4.9 16 Sur 26 Sur 0 -- -- 94
2019-04-03 04:00:00 5 15 Sudoeste 27 Sur 0 -- -- 93
2019-04-03 03:00:00 5 13 Sudoeste 23 Sur 0 -- -- 93
2019-04-03 02:00:00 4.7 8 Sudoeste 23 Sur 0 -- -- 92
2019-04-03 01:00:00 5 12 Sudoeste 20 Sur 0 -- -- 92
2019-04-03 00:00:00 5.4 7 Sudoeste 21 Sur 0 -- -- 92
2019-04-02 23:00:00 5.3 12 Sur 18 Sur 0 -- -- 92
2019-04-02 22:00:00 6.7 7 Sudoeste 20 Sudoeste 0.4 -- -- 88
2019-04-02 21:00:00 7 11 Sur 18 Sudoeste 0 -- -- 87
2019-04-02 20:00:00 8.7 11 Sudoeste 20 Sudoeste 0 -- -- 78
2019-04-02 19:00:00 8.9 10 Sur 18 Sudoeste 0.2 -- -- 82
2019-04-02 18:00:00 7.6 9 Sudoeste 31 Oeste 1 -- -- 86
2019-04-02 17:00:00 10.2 11 Oeste 22 Noroeste 0 -- -- 63
2019-04-02 16:00:00 10.2 4 Sudoeste 19 Sudoeste 0 -- -- 72
2019-04-02 15:00:00 10.7 9 Sudoeste 23 Oeste 0 -- -- 65
2019-04-02 14:00:00 11.3 7 Noroeste 19 Oeste 0 -- -- 64
2019-04-02 13:00:00 12 6 Oeste 16 Oeste 0 -- -- 73
2019-04-02 12:00:00 9.8 6 Oeste 16 Oeste 0 -- -- 83
2019-04-02 11:00:00 9.2 4 Sudoeste 11 Sur 0 -- -- 86
2019-04-02 10:00:00 6.5 4 Sur 10 Sur 0 -- -- 95
2019-04-02 09:00:00 4 3 Sur 8 Sur 0.2 -- -- 96
2019-04-02 08:00:00 3.8 4 Sur 12 Sur 0 -- -- 94
2019-04-02 07:00:00 4.7 8 Sur 14 Sur 0 -- -- 95
2019-04-02 06:00:00 5.2 8 Sur 16 Sur 1.8 -- -- 94
2019-04-02 05:00:00 5.2 4 Oeste 22 Oeste 2 -- -- 92
2019-04-02 04:00:00 6.5 11 Sudoeste 22 Sudoeste 0 -- -- 95
2019-04-02 03:00:00 6.5 12 Sudoeste 24 Sudoeste 0 -- -- 93
2019-04-02 02:00:00 6.6 11 Sudoeste 24 Sur 0 -- -- 95
2019-04-02 01:00:00 6.5 9 Sudoeste 19 Sudoeste 0 -- -- 94
2019-04-02 00:00:00 6.8 8 Sudoeste 16 Sur 0 -- -- 93
2019-04-01 23:00:00 7.4 5 Sudoeste 10 Sudoeste 0 -- -- 90
2019-04-01 22:00:00 7.5 0 Calma 13 Sur 0 -- -- 89
2019-04-01 21:00:00 7.8 6 Sur 10 Sur 0 -- -- 88
2019-04-01 20:00:00 8.9 2 Sudoeste 13 Oeste 0 -- -- 83
2019-04-01 19:00:00 9 7 Sudoeste 22 Sudoeste 0 -- -- 85
2019-04-01 18:00:00 9.2 9 Sudoeste 23 Sudoeste 0 -- -- 82
2019-04-01 17:00:00 9.9 14 Sudoeste 28 Sudoeste 0 -- -- 79
2019-04-01 16:00:00 9.6 11 Sudoeste 29 Sudoeste 0 -- -- 84
2019-04-01 15:00:00 10 12 Sudoeste 23 Sudoeste 0.4 -- -- 83
2019-04-01 14:00:00 10.2 9 Sudoeste 21 Sudoeste 0 -- -- 86
2019-04-01 13:00:00 8.1 9 Sudoeste 21 Sudoeste 0 -- -- 93
2019-04-01 12:00:00 6.3 2 Nordeste 6 Nordeste 0.2 -- -- 98
2019-04-01 11:00:00 5.6 3 Nordeste 6 Nordeste 0.2 -- -- 98
2019-04-01 10:00:00 5 2 Nordeste 6 Este 0.4 -- -- 98
2019-04-01 09:00:00 4.7 2 Nordeste 7 Este 0.6 -- -- 98
2019-04-01 08:00:00 4.4 2 Nordeste 5 Nordeste 0.4 -- -- 98
2019-04-01 07:00:00 4.3 0 Calma 4 Nordeste 0.2 -- -- 98
2019-04-01 06:00:00 4.2 2 Nordeste 5 Nordeste 0.4 -- -- 98
2019-04-01 05:00:00 4.2 3 Nordeste 7 Nordeste 0.4 -- -- 98
2019-04-01 04:00:00 4.3 3 Nordeste 8 Nordeste 0 -- -- 98
2019-04-01 03:00:00 4.3 3 Nordeste 9 Nordeste 0 -- -- 98
2019-04-01 02:00:00 4.5 3 Nordeste 8 Nordeste 0.4 -- -- 97
2019-04-01 01:00:00 4.4 2 Nordeste 6 Nordeste 0 -- -- 97
2019-04-01 00:00:00 4.3 3 Nordeste 8 Este 0.2 -- -- 97
2019-03-31 23:00:00 4.2 3 Nordeste 8 Nordeste 0 -- -- 96
2019-03-31 22:00:00 4.3 3 Nordeste 10 Este 0.2 -- -- 95
2019-03-31 21:00:00 4.5 5 Nordeste 17 Este 0.4 -- -- 93
2019-03-31 20:00:00 5 8 Este 19 Este 0.2 -- -- 91
2019-03-31 19:00:00 5.1 6 Este 20 Este 0.2 -- -- 92
2019-03-31 18:00:00 5.3 8 Este 25 Sudeste 0.4 -- -- 91
2019-03-31 17:00:00 5.7 10 Este 25 Este 0.6 -- -- 88
2019-03-31 16:00:00 6.5 11 Este 26 Nordeste 1.4 -- -- 86
2019-03-31 15:00:00 7.7 9 Este 20 Nordeste 0.8 -- -- 85
2019-03-31 14:00:00 8.2 5 Nordeste 10 Nordeste 0.2 -- -- 82
2019-03-31 13:00:00 6.4 4 Nordeste 8 Norte 0.2 -- -- 83
2019-03-31 12:00:00 5.7 4 Nordeste 7 Nordeste 0.4 -- -- 82
2019-03-31 11:00:00 4.8 3 Nordeste 8 Norte 0 -- -- 80
2019-03-31 10:00:00 3.8 4 Nordeste 8 Nordeste 0 -- -- 78
2019-03-31 09:00:00 3.4 4 Nordeste 8 Este 0 -- -- 77
2019-03-31 08:00:00 3.4 3 Este 9 Este 0 -- -- 76
2019-03-31 07:00:00 3.4 3 Este 8 Nordeste 0 -- -- 76
2019-03-31 06:00:00 3.6 4 Este 8 Nordeste 0 -- -- 75
2019-03-31 05:00:00 3.9 3 Nordeste 8 Este 0 -- -- 73
2019-03-31 03:00:00 5 2 Este 9 Este 0 -- -- 68
2019-03-31 01:00:00 5.6 3 Nordeste 17 Sudoeste 0 -- -- 64
2019-03-31 00:00:00 6.5 5 Sur 14 Sur 0 -- -- 64
2019-03-30 23:00:00 8.1 3 Sur 9 Sudeste 0 -- -- 60
2019-03-30 22:00:00 9.6 5 Sur 16 Este 0 -- -- 54
2019-03-30 21:00:00 10.2 9 Este 22 Este 0 -- -- 48
2019-03-30 20:00:00 12.8 3 Sur 15 Sur 0 -- -- 35
2019-03-30 19:00:00 14.1 6 Sur 16 Sudeste 0 -- -- 31
2019-03-30 18:00:00 15.1 4 Sudeste 15 Sudoeste 0 -- -- 29
2019-03-30 17:00:00 15.8 5 Sur 19 Sudoeste 0 -- -- 27
2019-03-30 16:00:00 16.6 7 Sudoeste 26 Sur 0 -- -- 27
2019-03-30 15:00:00 16.1 6 Sudeste 19 Sur 0 -- -- 25
2019-03-30 14:00:00 14.8 6 Sudoeste 20 Nordeste 0 -- -- 31
2019-03-30 13:00:00 13.4 9 Nordeste 21 Nordeste 0 -- -- 35
2019-03-30 12:00:00 12 5 Nordeste 16 Nordeste 0 -- -- 38
2019-03-30 11:00:00 -- -- -- -- -- -- -- -- --
2019-03-30 10:00:00 6.2 5 Nordeste 11 Nordeste 0 -- -- 51
2019-03-30 09:00:00 2 5 Nordeste 8 Nordeste 0 -- -- 65
2019-03-30 08:00:00 -0.4 2 Nordeste 4 Este 0 -- -- 72
2019-03-30 07:00:00 -0.7 2 Nordeste 6 Nordeste 0 -- -- 72
2019-03-30 06:00:00 -0.5 4 Nordeste 8 Nordeste 0 -- -- 70
2019-03-30 05:00:00 0.4 3 Nordeste 6 Este 0 -- -- 66
2019-03-30 04:00:00 1.7 2 Sudeste 11 Sudeste 0 -- -- 62
2019-03-30 03:00:00 2.9 6 Sur 14 Sur 0 -- -- 58
2019-03-30 02:00:00 3 0 Calma 14 Sur 0 -- -- 58
2019-03-30 01:00:00 3.8 6 Sur 18 Sur 0 -- -- 56
2019-03-30 00:00:00 4.5 6 Sur 27 Sur 0 -- -- 54
2019-03-29 23:00:00 5.6 15 Sur 31 Sur 0 -- -- 52
2019-03-29 22:00:00 6.1 15 Sur 27 Sur 0 -- -- 52
2019-03-29 21:00:00 8 14 Sudoeste 27 Sudoeste 0 -- -- 49
2019-03-29 20:00:00 9.8 13 Sudoeste 28 Sudoeste 0 -- -- 42
2019-03-29 19:00:00 12.3 12 Sudoeste 25 Sudoeste 0 -- -- 32
2019-03-29 18:00:00 13.6 10 Sudoeste 28 Sudoeste 0 -- -- 28
2019-03-29 17:00:00 15.5 11 Oeste 28 Sudoeste 0 -- -- 25
2019-03-29 16:00:00 16.1 13 Sudoeste 29 Sudoeste 0 -- -- 25
2019-03-29 15:00:00 15.7 10 Sur 31 Sudoeste 0 -- -- 26
2019-03-29 14:00:00 15 11 Sudoeste 28 Sudoeste 0 -- -- 28
2019-03-29 13:00:00 14 14 Sudoeste 27 Sur 0 -- -- 28
2019-03-29 12:00:00 13.4 10 Sudoeste 25 Sur 0 -- -- 29
2019-03-29 11:00:00 11.9 5 Sur 16 Sudoeste 0 -- -- 30
2019-03-29 10:00:00 7 5 Nordeste 10 Nordeste 0 -- -- 48
2019-03-29 09:00:00 3.2 2 Nordeste 4 Nordeste 0 -- -- 63
2019-03-29 08:00:00 -0.3 2 Nordeste 4 Nordeste 0 -- -- 70
2019-03-29 07:00:00 0 2 Nordeste 4 Nordeste 0 -- -- 67
2019-03-29 06:00:00 0.4 3 Nordeste 5 Nordeste 0 -- -- 64
2019-03-29 05:00:00 1.8 2 Nordeste 6 Nordeste 0 -- -- 59
2019-03-29 04:00:00 1.8 3 Nordeste 8 Sudeste 0 -- -- 60
2019-03-29 03:00:00 2.7 3 Sur 14 Sur 0 -- -- 56
2019-03-29 02:00:00 3 3 Sur 16 Sur 0 -- -- 56
2019-03-29 01:00:00 4.3 11 Sur 19 Sur 0 -- -- 52
2019-03-29 00:00:00 4.5 10 Sur 20 Sur 0 -- -- 51
2019-03-28 23:00:00 6 2 Sudoeste 16 Sur 0 -- -- 46
2019-03-28 22:00:00 7.9 5 Sudeste 10 Sudeste 0 -- -- 43
2019-03-28 21:00:00 9.2 4 Este 12 Este 0 -- -- 35
2019-03-28 20:00:00 10.8 6 Este 18 Nordeste 0 -- -- 31
2019-03-28 19:00:00 12.9 8 Este 19 Nordeste 0 -- -- 28
2019-03-28 18:00:00 14.5 8 Nordeste 22 Norte 0 -- -- 25
2019-03-28 17:00:00 16.6 7 Nordeste 22 Nordeste 0 -- -- 22
2019-03-28 16:00:00 16.6 8 Nordeste 19 Nordeste 0 -- -- 23
2019-03-28 15:00:00 16 8 Nordeste 17 Norte 0 -- -- 23
2019-03-28 14:00:00 15.5 4 Nordeste 17 Norte 0 -- -- 24
2019-03-28 13:00:00 13.4 4 Sur 16 Norte 0 -- -- 29
2019-03-28 12:00:00 12.1 5 Norte 14 Nordeste 0 -- -- 30
2019-03-28 11:00:00 10.8 4 Nordeste 10 Nordeste 0 -- -- 34
2019-03-28 10:00:00 6.6 4 Nordeste 6 Nordeste 0 -- -- 43
2019-03-28 09:00:00 2.8 3 Nordeste 5 Nordeste 0 -- -- 55
2019-03-28 08:00:00 -1.2 0 Calma 4 Sur 0 -- -- 60
2019-03-28 07:00:00 -1.4 2 Sudeste 4 Sur 0 -- -- 58
2019-03-28 06:00:00 -1.3 0 Calma 4 Nordeste 0 -- -- 56
2019-03-28 05:00:00 -0.6 0 Calma 5 Sur 0 -- -- 53
2019-03-28 04:00:00 0.6 4 Sur 9 Sur 0 -- -- 49
2019-03-28 03:00:00 1 0 Calma 5 Sur 0 -- -- 47
2019-03-28 02:00:00 2.8 0 Calma 8 Sudeste 0 -- -- 42
2019-03-28 01:00:00 3.6 3 Nordeste 5 Este 0 -- -- 41
2019-03-28 00:00:00 4.1 2 Sudoeste 12 Sur 0 -- -- 39
2019-03-27 23:00:00 4.9 3 Este 13 Este 0 -- -- 39
2019-03-27 22:00:00 7.1 4 Este 11 Este 0 -- -- 33
2019-03-27 21:00:00 7.9 4 Nordeste 8 Este 0 -- -- 33
2019-03-27 20:00:00 9.7 4 Este 14 Nordeste 0 -- -- 29
2019-03-27 19:00:00 11.5 6 Nordeste 20 Nordeste 0 -- -- 26
2019-03-27 18:00:00 13.2 9 Nordeste 22 Este 0 -- -- 24
2019-03-27 17:00:00 15.5 8 Este 28 Sudeste 0 -- -- 21
2019-03-27 16:00:00 15.6 10 Este 25 Este 0 -- -- 21
2019-03-27 15:00:00 15.4 8 Este 23 Este 0 -- -- 21
2019-03-27 14:00:00 14.6 11 Este 25 Nordeste 0 -- -- 19
2019-03-27 13:00:00 13.2 10 Este 21 Nordeste 0 -- -- 26
2019-03-27 12:00:00 10.7 10 Nordeste 21 Nordeste 0 -- -- 34
2019-03-27 11:00:00 8.2 9 Nordeste 19 Nordeste 0 -- -- 39
2019-03-27 10:00:00 5.1 7 Nordeste 13 Nordeste 0 -- -- 49
2019-03-27 09:00:00 1 3 Nordeste 9 Nordeste 0 -- -- 56
2019-03-27 08:00:00 -2.4 3 Este 8 Este 0 -- -- 59
2019-03-27 07:00:00 -2.8 5 Este 9 Nordeste 0 -- -- 59
2019-03-27 06:00:00 -2.1 4 Este 8 Nordeste 0 -- -- 54
2019-03-27 05:00:00 -1.5 4 Nordeste 9 Nordeste 0 -- -- 53
2019-03-27 04:00:00 -0.6 3 Nordeste 7 Nordeste 0 -- -- 48
2019-03-27 03:00:00 0.2 4 Este 9 Nordeste 0 -- -- 45
2019-03-27 02:00:00 0.6 5 Nordeste 12 Nordeste 0 -- -- 44
2019-03-27 01:00:00 1.7 5 Nordeste 14 Nordeste 0 -- -- 40
2019-03-27 00:00:00 2.8 4 Nordeste 9 Nordeste 0 -- -- 36
2019-03-26 23:00:00 5 5 Este 13 Este 0 -- -- 30
2019-03-26 22:00:00 6.3 10 Este 18 Este 0 -- -- 27
2019-03-26 21:00:00 7.9 8 Este 18 Este 0 -- -- 25
2019-03-26 20:00:00 9 11 Este 21 Este 0 -- -- 23
2019-03-26 19:00:00 11 9 Nordeste 30 Nordeste 0 -- -- 24
2019-03-26 18:00:00 12.6 11 Nordeste 31 Este 0 -- -- 23
2019-03-26 17:00:00 14.2 14 Este 35 Nordeste 0 -- -- 22
2019-03-26 16:00:00 15.1 13 Nordeste 38 Este 0 -- -- 27
2019-03-26 15:00:00 14.9 14 Nordeste 30 Nordeste 0 -- -- 30
2019-03-26 14:00:00 14.1 15 Nordeste 35 Nordeste 0 -- -- 36
2019-03-26 13:00:00 12.6 14 Nordeste 30 Nordeste 0 -- -- 39
2019-03-26 12:00:00 11.2 13 Nordeste 26 Nordeste 0 -- -- 46
2019-03-26 11:00:00 8.9 13 Nordeste 29 Nordeste 0 -- -- 51
2019-03-26 10:00:00 5.4 10 Nordeste 21 Este 0 -- -- 63
2019-03-26 09:00:00 1.2 8 Nordeste 15 Nordeste 0 -- -- 77
2019-03-26 08:00:00 -1.2 7 Este 15 Este 0 -- -- 85
2019-03-26 07:00:00 -3.1 4 Nordeste 10 Nordeste 0 -- -- 87
2019-03-26 06:00:00 -2.8 5 Nordeste 12 Este 0 -- -- 86
2019-03-26 05:00:00 -2.2 4 Nordeste 12 Este 0 -- -- 85
2019-03-26 04:00:00 -1.6 6 Este 12 Nordeste 0 -- -- 83
2019-03-26 03:00:00 -1 5 Nordeste 14 Nordeste 0 -- -- 80
2019-03-26 02:00:00 0.2 6 Este 15 Este 0 -- -- 77
2019-03-26 01:00:00 0.6 6 Nordeste 12 Nordeste 0 -- -- 76
2019-03-26 00:00:00 1.6 4 Nordeste 14 Norte 0 -- -- 68
2019-03-25 23:00:00 3.3 8 Nordeste 19 Norte 0 -- -- 61
2019-03-25 22:00:00 4.8 10 Nordeste 25 Nordeste 0 -- -- 53
2019-03-25 21:00:00 6.3 10 Nordeste 22 Nordeste 0 -- -- 51
2019-03-25 20:00:00 8.4 13 Nordeste 24 Nordeste 0 -- -- 38
2019-03-25 19:00:00 10.9 12 Nordeste 28 Nordeste 0 -- -- 30
2019-03-25 18:00:00 13.1 17 Nordeste 28 Norte 0 -- -- 26
2019-03-25 17:00:00 15.4 15 Nordeste 27 Nordeste 0 -- -- 26
2019-03-25 16:00:00 16 14 Norte 31 Norte 0 -- -- 30
2019-03-25 15:00:00 16.3 6 Noroeste 24 Noroeste 0 -- -- 28
2019-03-25 14:00:00 15.5 8 Norte 31 Noroeste 0 -- -- 29
2019-03-25 13:00:00 14.8 5 Oeste 21 Sudoeste 0 -- -- 37
2019-03-25 12:00:00 13 6 Nordeste 13 Nordeste 0 -- -- 38
2019-03-25 11:00:00 10.7 4 Nordeste 13 Nordeste 0 -- -- 48
2019-03-25 10:00:00 7.6 6 Nordeste 9 Nordeste 0 -- -- 56
2019-03-25 09:00:00 4.3 4 Nordeste 10 Este 0 -- -- 66
2019-03-25 08:00:00 0.4 2 Este 4 Sudeste 0 -- -- 73
2019-03-25 07:00:00 0.8 0 Calma 5 Nordeste 0 -- -- 68
2019-03-25 06:00:00 1.1 0 Calma 5 Sudeste 0 -- -- 66
2019-03-25 05:00:00 2.1 0 Calma 5 Sudeste 0 -- -- 61
2019-03-25 04:00:00 3 2 Sur 4 Sur 0 -- -- 57
2019-03-25 03:00:00 4.5 2 Este 4 Nordeste 0 -- -- 54
2019-03-25 02:00:00 5.7 2 Sudeste 8 Sur 0 -- -- 51
2019-03-25 01:00:00 6.2 3 Sur 6 Sur 0 -- -- 49
2019-03-25 00:00:00 7.2 2 Sur 6 Sur 0 -- -- 45
2019-03-24 23:00:00 8.7 4 Nordeste 12 Nordeste 0 -- -- 41
2019-03-24 22:00:00 9.5 6 Nordeste 12 Este 0 -- -- 39
2019-03-24 21:00:00 10.7 6 Este 15 Nordeste 0 -- -- 36
2019-03-24 20:00:00 12.1 6 Nordeste 16 Nordeste 0 -- -- 34
2019-03-24 19:00:00 14.1 6 Nordeste 22 Nordeste 0 -- -- 29
2019-03-24 18:00:00 15.6 9 Nordeste 26 Nordeste 0 -- -- 26
2019-03-24 17:00:00 17.2 12 Este 27 Nordeste 0 -- -- 24
2019-03-24 16:00:00 18.2 12 Nordeste 44 Nordeste 0 -- -- 24
2019-03-24 15:00:00 18 14 Nordeste 26 Nordeste 0 -- -- 24
2019-03-24 14:00:00 17.5 8 Nordeste 31 Sudeste 0 -- -- 25
2019-03-24 13:00:00 16.7 10 Este 30 Nordeste 0 -- -- 26
2019-03-24 12:00:00 14.6 9 Nordeste 24 Nordeste 0 -- -- 35
2019-03-24 11:00:00 12 8 Nordeste 14 Nordeste 0 -- -- 42
2019-03-24 10:00:00 7.1 4 Nordeste 10 Nordeste 0 -- -- 59
2019-03-24 09:00:00 2.9 7 Nordeste 11 Nordeste 0 -- -- 70
2019-03-24 08:00:00 -0.2 4 Nordeste 6 Nordeste 0 -- -- 80
2019-03-24 07:00:00 0.2 3 Nordeste 5 Nordeste 0 -- -- 78
2019-03-24 06:00:00 0.9 3 Nordeste 5 Nordeste 0 -- -- 75
2019-03-24 05:00:00 2.3 0 Calma 5 Nordeste 0 -- -- 65
2019-03-24 04:00:00 3.3 3 Nordeste 5 Nordeste 0 -- -- 66
2019-03-24 03:00:00 4.7 2 Nordeste 8 Este 0 -- -- 63
2019-03-24 02:00:00 5.1 3 Este 5 Nordeste 0 -- -- 65
2019-03-24 01:00:00 6.4 0 Calma 5 Sur 0 -- -- 62
2019-03-24 00:00:00 6.4 2 Sur 5 Sur 0 -- -- 60
2019-03-23 23:00:00 7 2 Sudeste 6 Sudeste 0 -- -- 58
2019-03-23 22:00:00 8 4 Sudoeste 6 Nordeste 0 -- -- 54
2019-03-23 21:00:00 9.4 0 Calma 7 Sudeste 0 -- -- 50
2019-03-23 20:00:00 10.8 4 Sudeste 12 Sudeste 0 -- -- 47
2019-03-23 19:00:00 12.3 7 Sudeste 21 Este 0 -- -- 44
2019-03-23 18:00:00 13.6 11 Este 27 Este 0 -- -- 38
2019-03-23 17:00:00 14.8 12 Este 25 Este 0 -- -- 36
2019-03-23 16:00:00 15.1 10 Nordeste 29 Este 0 -- -- 36
2019-03-23 15:00:00 16.3 13 Este 41 Este 0 -- -- 34
2019-03-23 14:00:00 15.3 15 Este 37 Este 0 -- -- 34
2019-03-23 13:00:00 14.5 15 Nordeste 35 Norte 0 -- -- 40
2019-03-23 12:00:00 13.8 12 Nordeste 35 Este 0 -- -- 43
2019-03-23 11:00:00 11.1 14 Nordeste 26 Nordeste 0 -- -- 53
2019-03-23 10:00:00 7.4 7 Nordeste 12 Nordeste 0 -- -- 63
2019-03-23 09:00:00 3.1 3 Nordeste 8 Nordeste 0 -- -- 79
2019-03-23 08:00:00 -0.3 3 Nordeste 5 Nordeste 0 -- -- 84
2019-03-23 07:00:00 -0.1 3 Nordeste 5 Sudeste 0 -- -- 80
2019-03-23 06:00:00 0.4 3 Nordeste 5 Nordeste 0 -- -- 78
2019-03-23 05:00:00 0.9 0 Calma -- -- 0 -- -- 76
2019-03-23 04:00:00 1.9 0 Calma -- -- 0 -- -- 72
2019-03-23 03:00:00 3.1 0 Calma 4 Nordeste 0 -- -- 67
2019-03-23 02:00:00 3.8 0 Calma 5 Este 0 -- -- 66
2019-03-23 01:00:00 4.9 0 Calma 5 Este 0 -- -- 62
2019-03-23 00:00:00 6 3 Nordeste 9 Sudeste 0 -- -- 59
2019-03-22 23:00:00 6.1 6 Sudeste 11 Sudeste 0 -- -- 58
2019-03-22 22:00:00 7.2 0 Calma 7 Este 0 -- -- 52
2019-03-22 21:00:00 8.5 4 Nordeste 11 Sudeste 0 -- -- 49
2019-03-22 20:00:00 9.7 5 Sudeste 10 Sudeste 0 -- -- 47
2019-03-22 19:00:00 11.5 4 Este 23 Este 0 -- -- 43
2019-03-22 18:00:00 13.6 9 Este 24 Nordeste 0 -- -- 38
2019-03-22 17:00:00 14.3 11 Nordeste 28 Nordeste 0 -- -- 36
2019-03-22 16:00:00 14.7 11 Este 29 Este 0 -- -- 35
2019-03-22 15:00:00 14.3 12 Este 31 Nordeste 0 -- -- 36
2019-03-22 14:00:00 14 11 Este 31 Nordeste 0 -- -- 37
2019-03-22 13:00:00 12.7 11 Nordeste 31 Nordeste 0 -- -- 38
2019-03-22 12:00:00 10.9 12 Nordeste 24 Este 0 -- -- 40
2019-03-22 11:00:00 7.7 9 Nordeste 17 Nordeste 0 -- -- 48
2019-03-22 10:00:00 4.3 6 Nordeste 10 Nordeste 0 -- -- 58
2019-03-22 09:00:00 0.3 3 Nordeste 6 Nordeste 0 -- -- 70
2019-03-22 08:00:00 -2.7 2 Este 4 Nordeste 0 -- -- 76
2019-03-22 07:00:00 -2.4 0 Calma 4 Nordeste 0 -- -- 74
2019-03-22 06:00:00 -2.4 2 Nordeste 4 Este 0 -- -- 70
2019-03-22 05:00:00 -1.5 0 Calma 5 Sur 0 -- -- 69
2019-03-22 04:00:00 -1.4 2 Nordeste 4 Sudoeste 0 -- -- 68
2019-03-22 03:00:00 -0.9 2 Sur 7 Sur 0 -- -- 64
2019-03-22 02:00:00 0 0 Calma 5 Sur 0 -- -- 61
2019-03-22 01:00:00 1.3 0 Calma 6 Sur 0 -- -- 57
2019-03-22 00:00:00 2.3 3 Sur 9 Sudeste 0 -- -- 54
2019-03-21 23:00:00 3.4 4 Sur 14 Este 0 -- -- 51
2019-03-21 22:00:00 4.7 7 Este 20 Este 0 -- -- 48
2019-03-21 21:00:00 5.8 8 Este 20 Este 0 -- -- 44
2019-03-21 20:00:00 6.8 7 Este 18 Nordeste 0 -- -- 43
2019-03-21 19:00:00 8.5 5 Nordeste 17 Este 0 -- -- 37
2019-03-21 18:00:00 9.7 10 Nordeste 22 Nordeste 0 -- -- 32
2019-03-21 17:00:00 11.2 12 Nordeste 25 Nordeste 0 -- -- 30
2019-03-21 16:00:00 12.1 9 Nordeste 26 Nordeste 0 -- -- 29
2019-03-21 15:00:00 11.6 5 Nordeste 27 Nordeste 0 -- -- 30
2019-03-21 14:00:00 11.4 9 Este 28 Nordeste 0 -- -- 30
2019-03-21 13:00:00 10.3 5 Este 23 Nordeste 0 -- -- 34
2019-03-21 12:00:00 8.8 8 Nordeste 17 Nordeste 0 -- -- 38
2019-03-21 11:00:00 6.3 5 Nordeste 12 Nordeste 0 -- -- 46
2019-03-21 10:00:00 2.9 5 Nordeste 9 Nordeste 0 -- -- 58
2019-03-21 09:00:00 -0.4 3 Nordeste 4 Nordeste 0 -- -- 68
2019-03-21 08:00:00 -3.2 0 Calma 2 Nordeste 0 -- -- 75
2019-03-21 07:00:00 -3.3 0 Calma 3 Sudeste 0 -- -- 73
2019-03-21 06:00:00 -2.9 2 Sudeste 4 Sudeste 0 -- -- 71
2019-03-21 05:00:00 -2.4 0 Calma 6 Este 0 -- -- 70
2019-03-21 04:00:00 -0.8 5 Este 12 Sudeste 0 -- -- 65
2019-03-21 03:00:00 -0.8 5 Sudeste 10 Nordeste 0 -- -- 64
2019-03-21 02:00:00 -0.9 4 Nordeste 8 Nordeste 0 -- -- 62
2019-03-21 01:00:00 -0.3 5 Nordeste 11 Este 0 -- -- 59
2019-03-21 00:00:00 1 4 Nordeste 14 Nordeste 0 -- -- 55